Time;durP1;ratioP1;P1;durP2;ratioP2;P2;SDS_P1;SDS_P2;PMS_P1;PMS_P2;Temp;Humidity;BMP_temperature;BMP_pressure;BME280_temperature;BME280_humidity;BME280_pressure;Samples;Min_cycle;Max_cycle;Signal;HPM_P1;HPM_P2
2021/11/29 00:01:18;;;;;;;12.57;8.60;;;1.80;95.30;;;;;;5080053;28;20197;-87
2021/11/29 00:03:46;;;;;;;11.67;9.17;;;1.80;95.40;;;;;;5069137;28;20222;-86
2021/11/29 00:06:13;;;;;;;11.97;8.90;;;1.90;95.30;;;;;;5081280;28;20556;-87
2021/11/29 00:08:40;;;;;;;11.97;8.57;;;1.90;95.10;;;;;;5088654;28;20195;-87
2021/11/29 00:11:07;;;;;;;11.10;9.07;;;2.00;94.90;;;;;;5084112;28;20226;-89
2021/11/29 00:13:35;;;;;;;11.83;9.40;;;1.90;94.80;;;;;;5085022;28;20213;-88
2021/11/29 00:16:02;;;;;;;9.87;8.40;;;1.80;95.10;;;;;;5088419;28;20236;-87
2021/11/29 00:18:30;;;;;;;12.70;9.07;;;1.80;95.40;;;;;;5094906;28;20203;-88
2021/11/29 00:20:58;;;;;;;13.20;9.10;;;1.80;95.60;;;;;;5084973;28;20786;-87
2021/11/29 00:23:25;;;;;;;11.57;8.80;;;1.80;95.70;;;;;;5094206;28;20201;-89
2021/11/29 00:25:53;;;;;;;12.27;8.57;;;1.90;95.50;;;;;;5110757;28;20219;-91
2021/11/29 00:28:21;;;;;;;11.00;8.73;;;1.90;95.30;;;;;;5090787;28;20196;-86
2021/11/29 00:30:48;;;;;;;11.70;8.80;;;2.00;95.10;;;;;;5087012;28;20683;-88
2021/11/29 00:33:16;;;;;;;11.80;8.87;;;2.00;94.90;;;;;;5082618;28;20671;-88
2021/11/29 00:35:45;;;;;;;10.50;8.30;;;2.00;95.00;;;;;;5061541;28;20693;-87
2021/11/29 00:38:13;;;;;;;12.53;8.73;;;2.10;94.80;;;;;;5093344;28;20203;-89
2021/11/29 00:40:41;;;;;;;10.63;8.37;;;2.10;94.60;;;;;;5080466;28;20738;-86
2021/11/29 00:43:08;;;;;;;12.30;9.20;;;2.10;94.80;;;;;;5070069;28;20208;-90
2021/11/29 00:45:35;;;;;;;13.13;9.40;;;2.00;94.90;;;;;;5097132;28;20219;-86
2021/11/29 00:48:03;;;;;;;10.30;8.63;;;1.90;95.30;;;;;;5101535;28;20217;-87
2021/11/29 00:50:30;;;;;;;11.70;8.73;;;2.00;95.00;;;;;;5078810;28;20250;-85
2021/11/29 00:52:58;;;;;;;11.97;9.43;;;2.00;95.10;;;;;;5076973;28;20240;-87
2021/11/29 00:55:25;;;;;;;13.53;9.83;;;2.10;94.70;;;;;;5079980;28;20217;-89
2021/11/29 00:57:52;;;;;;;11.70;9.33;;;2.20;94.70;;;;;;5086196;28;20711;-89
2021/11/29 01:00:22;;;;;;;11.57;9.40;;;2.20;94.50;;;;;;5063296;28;20225;-91
2021/11/29 01:02:50;;;;;;;14.10;10.13;;;2.20;94.50;;;;;;5072055;28;20189;-89
2021/11/29 01:05:19;;;;;;;12.37;9.67;;;2.20;94.60;;;;;;5083432;28;20261;-88
2021/11/29 01:07:46;;;;;;;13.27;9.70;;;2.20;94.50;;;;;;5068482;28;20200;-88
2021/11/29 01:10:16;;;;;;;13.23;10.03;;;2.20;94.50;;;;;;5070531;28;20231;-88
2021/11/29 01:12:45;;;;;;;12.30;9.70;;;2.20;94.50;;;;;;5086711;28;20210;-88
2021/11/29 01:15:14;;;;;;;13.07;10.30;;;2.10;94.50;;;;;;5083996;28;21036;-88
2021/11/29 01:17:42;;;;;;;12.40;9.10;;;2.20;94.90;;;;;;5085822;28;20196;-89
2021/11/29 01:20:11;;;;;;;11.90;9.03;;;2.20;94.90;;;;;;5083212;28;20213;-89
2021/11/29 01:22:38;;;;;;;12.50;9.17;;;2.20;94.70;;;;;;5070374;28;20201;-89
2021/11/29 01:25:07;;;;;;;11.10;9.10;;;2.30;94.50;;;;;;5084251;28;20221;-89
2021/11/29 01:27:36;;;;;;;14.00;9.17;;;2.20;94.50;;;;;;5094910;28;20194;-88
2021/11/29 01:30:04;;;;;;;10.80;7.57;;;2.20;94.50;;;;;;5052782;28;20764;-88
2021/11/29 01:32:31;;;;;;;8.77;7.37;;;2.20;94.50;;;;;;5085509;28;20260;-88
2021/11/29 01:34:59;;;;;;;10.30;8.07;;;2.30;94.50;;;;;;5081779;28;20466;-88
2021/11/29 01:37:26;;;;;;;10.10;7.93;;;2.10;94.50;;;;;;5092149;28;20200;-88
2021/11/29 01:39:53;;;;;;;10.10;7.90;;;1.90;94.70;;;;;;5085179;28;20228;-88
2021/11/29 01:42:21;;;;;;;10.97;8.13;;;1.80;95.00;;;;;;5081778;28;20212;-88
2021/11/29 01:44:50;;;;;;;11.70;8.03;;;1.80;95.40;;;;;;5097813;28;20235;-88
2021/11/29 01:47:21;;;;;;;9.27;7.73;;;1.80;95.40;;;;;;5093198;28;20658;-88
2021/11/29 01:49:48;;;;;;;10.37;8.20;;;1.90;95.60;;;;;;5082030;28;20228;-88
2021/11/29 01:52:15;;;;;;;9.70;7.73;;;2.00;95.40;;;;;;5072474;28;20224;-88
2021/11/29 01:54:42;;;;;;;9.00;7.53;;;2.00;95.10;;;;;;5082180;28;20226;-88
2021/11/29 01:57:09;;;;;;;9.67;8.03;;;2.00;94.80;;;;;;5085637;28;20197;-87
2021/11/29 01:59:37;;;;;;;10.00;8.10;;;2.00;94.50;;;;;;5086396;28;20226;-88
2021/11/29 02:02:06;;;;;;;9.50;7.40;;;2.10;94.50;;;;;;5086902;28;20197;-88
2021/11/29 02:04:34;;;;;;;11.10;8.20;;;2.10;94.70;;;;;;5078271;28;20718;-90
2021/11/29 02:07:01;;;;;;;10.50;7.93;;;2.10;94.50;;;;;;5089132;28;20209;-89
2021/11/29 02:09:28;;;;;;;11.97;8.87;;;2.20;94.50;;;;;;5089743;28;20220;-88
2021/11/29 02:11:56;;;;;;;11.77;8.63;;;2.10;94.50;;;;;;5078443;28;20245;-89
2021/11/29 02:14:23;;;;;;;9.97;8.23;;;2.20;94.20;;;;;;5081607;28;20686;-88
2021/11/29 02:16:50;;;;;;;11.30;8.57;;;2.20;94.80;;;;;;5080314;28;20227;-88
2021/11/29 02:19:18;;;;;;;12.47;8.60;;;2.10;94.50;;;;;;5073105;28;20686;-89
2021/11/29 02:21:47;;;;;;;11.10;8.50;;;2.20;94.40;;;;;;5083245;28;20196;-88
2021/11/29 02:24:16;;;;;;;10.97;7.97;;;2.30;94.10;;;;;;5063572;28;20229;-88
2021/11/29 02:26:43;;;;;;;11.00;8.43;;;2.30;93.70;;;;;;5089441;28;20200;-88
2021/11/29 02:29:12;;;;;;;12.30;8.47;;;2.40;93.80;;;;;;5080808;28;20224;-89
2021/11/29 02:31:43;;;;;;;12.40;8.73;;;2.30;93.50;;;;;;5093809;28;20579;-87
2021/11/29 02:34:12;;;;;;;9.40;7.97;;;2.10;94.00;;;;;;5061834;28;20915;-88
2021/11/29 02:36:41;;;;;;;10.10;7.80;;;2.10;93.80;;;;;;5084695;28;20193;-88
2021/11/29 02:39:11;;;;;;;13.23;8.70;;;2.20;93.70;;;;;;5081298;28;20224;-89
2021/11/29 02:41:38;;;;;;;11.20;8.20;;;2.10;93.70;;;;;;5085037;28;20204;-88
2021/11/29 02:44:06;;;;;;;11.47;9.17;;;2.10;94.00;;;;;;5089124;28;20239;-88
2021/11/29 02:46:34;;;;;;;11.60;8.40;;;2.10;94.30;;;;;;5084015;28;20215;-88
2021/11/29 02:49:02;;;;;;;9.97;8.23;;;2.20;93.90;;;;;;5103059;28;20682;-89
2021/11/29 02:51:32;;;;;;;10.20;8.43;;;2.20;94.00;;;;;;5078026;28;20267;-88
2021/11/29 02:54:03;;;;;;;9.70;8.17;;;2.10;94.00;;;;;;5083956;28;20196;-89
2021/11/29 02:56:36;;;;;;;10.93;8.47;;;2.10;93.70;;;;;;5085961;28;20552;-88
2021/11/29 02:59:03;;;;;;;11.43;9.37;;;2.10;93.70;;;;;;5083004;28;20197;-88
2021/11/29 03:01:30;;;;;;;11.67;9.07;;;2.10;93.80;;;;;;5084586;28;20668;-88
2021/11/29 03:03:57;;;;;;;12.57;9.00;;;2.10;93.90;;;;;;5075445;28;20211;-89
2021/11/29 03:06:25;;;;;;;13.27;8.97;;;2.00;94.20;;;;;;5084246;28;20552;-88
2021/11/29 03:08:52;;;;;;;14.77;11.00;;;1.90;94.00;;;;;;5070928;28;20253;-89
2021/11/29 03:11:20;;;;;;;13.07;10.00;;;2.00;94.10;;;;;;5065027;28;20193;-88
2021/11/29 03:13:49;;;;;;;13.83;10.10;;;1.90;94.40;;;;;;5068679;28;20193;-88
2021/11/29 03:16:16;;;;;;;11.93;9.80;;;1.90;94.40;;;;;;5083335;28;20211;-88
2021/11/29 03:18:45;;;;;;;13.27;9.93;;;1.90;94.40;;;;;;5080655;28;20209;-86
2021/11/29 03:21:16;;;;;;;12.40;9.97;;;1.90;94.40;;;;;;5085674;28;20594;-86
2021/11/29 03:23:44;;;;;;;13.07;10.80;;;1.90;94.10;;;;;;5085069;28;20216;-86
2021/11/29 03:26:15;;;;;;;13.20;10.67;;;1.80;94.10;;;;;;5074952;28;20259;-86
2021/11/29 03:28:44;;;;;;;13.17;10.50;;;1.80;94.10;;;;;;5089692;28;20299;-89
2021/11/29 03:31:12;;;;;;;12.50;10.77;;;1.80;94.20;;;;;;5050774;28;20251;-87
2021/11/29 03:33:41;;;;;;;15.10;11.43;;;1.80;94.40;;;;;;5072794;28;20670;-87
2021/11/29 03:36:09;;;;;;;13.83;11.07;;;1.80;94.40;;;;;;5077978;28;20212;-88
2021/11/29 03:38:37;;;;;;;15.13;11.10;;;1.70;94.40;;;;;;5083073;28;20193;-86
2021/11/29 03:41:08;;;;;;;15.50;11.20;;;1.70;94.40;;;;;;5086601;28;20686;-86
2021/11/29 03:43:38;;;;;;;13.63;11.30;;;1.70;94.40;;;;;;5074825;28;20815;-86
2021/11/29 03:46:05;;;;;;;13.70;11.17;;;1.60;94.40;;;;;;5081694;28;20247;-86
2021/11/29 03:48:35;;;;;;;15.27;10.87;;;1.70;94.40;;;;;;5091780;28;20193;-85
2021/11/29 03:51:02;;;;;;;16.47;12.10;;;1.80;94.40;;;;;;5066841;28;20216;-89
2021/11/29 03:53:29;;;;;;;15.50;11.30;;;1.80;94.40;;;;;;5087832;28;20223;-86
2021/11/29 03:55:57;;;;;;;17.37;12.23;;;1.80;94.40;;;;;;5084464;28;20255;-86
2021/11/29 03:58:28;;;;;;;16.57;11.63;;;1.60;94.40;;;;;;5081055;28;20193;-86
2021/11/29 04:00:55;;;;;;;15.37;12.00;;;1.60;94.40;;;;;;5087233;28;20224;-91
2021/11/29 04:03:23;;;;;;;14.70;11.57;;;1.70;94.40;;;;;;5083899;28;20209;-87
2021/11/29 04:05:51;;;;;;;16.67;12.00;;;1.60;94.40;;;;;;5058403;28;20246;-89
2021/11/29 04:08:19;;;;;;;15.50;11.47;;;1.70;94.40;;;;;;5077924;28;20206;-88
2021/11/29 04:10:46;;;;;;;16.77;12.63;;;1.70;94.40;;;;;;5079245;28;20743;-88
2021/11/29 04:13:13;;;;;;;17.67;12.50;;;1.70;94.40;;;;;;5086903;28;20220;-88
2021/11/29 04:15:40;;;;;;;15.57;11.80;;;1.70;94.40;;;;;;5087749;28;20223;-90
2021/11/29 04:18:07;;;;;;;16.50;12.37;;;1.70;94.40;;;;;;5069270;28;20201;-89
2021/11/29 04:20:34;;;;;;;15.43;12.03;;;1.60;94.40;;;;;;5089200;28;20216;-89
2021/11/29 04:23:04;;;;;;;18.03;12.57;;;1.60;94.40;;;;;;5076326;28;20680;-88
2021/11/29 04:25:38;;;;;;;15.57;12.20;;;1.70;94.40;;;;;;5057916;28;20225;-88
2021/11/29 04:28:05;;;;;;;16.63;12.47;;;1.70;94.40;;;;;;5080272;28;20283;-88
2021/11/29 04:30:32;;;;;;;16.20;12.83;;;1.70;94.40;;;;;;5082746;28;20232;-88
2021/11/29 04:32:59;;;;;;;14.93;11.77;;;1.60;94.40;;;;;;5089764;28;20220;-88
2021/11/29 04:35:27;;;;;;;17.33;12.33;;;1.60;94.60;;;;;;5103870;28;20228;-89
2021/11/29 04:37:55;;;;;;;15.30;11.70;;;1.50;94.30;;;;;;5065209;28;20683;-88
2021/11/29 04:40:23;;;;;;;14.80;11.63;;;1.60;94.40;;;;;;5091787;28;20225;-88
2021/11/29 04:42:50;;;;;;;15.93;12.23;;;1.60;94.40;;;;;;5085009;28;20665;-88
2021/11/29 04:45:17;;;;;;;15.30;12.00;;;1.60;94.40;;;;;;5088354;28;20228;-89
2021/11/29 04:47:45;;;;;;;16.63;12.07;;;1.50;94.70;;;;;;5061091;28;20204;-88
2021/11/29 04:50:12;;;;;;;14.80;11.77;;;1.60;94.40;;;;;;5068618;28;20227;-89
2021/11/29 04:52:40;;;;;;;15.90;12.77;;;1.60;94.40;;;;;;5084783;28;20566;-88
2021/11/29 04:55:09;;;;;;;15.77;11.97;;;1.60;94.40;;;;;;5066639;28;20225;-88
2021/11/29 04:57:37;;;;;;;17.43;12.67;;;1.60;94.40;;;;;;5086917;28;20235;-89
2021/11/29 05:00:06;;;;;;;16.43;12.33;;;1.50;94.70;;;;;;5085804;28;20232;-88
2021/11/29 05:02:33;;;;;;;19.37;12.87;;;1.60;94.60;;;;;;5090066;28;20200;-88
2021/11/29 05:05:01;;;;;;;17.57;12.67;;;1.50;94.70;;;;;;5081727;28;20220;-88
2021/11/29 05:07:28;;;;;;;14.77;12.50;;;1.40;94.90;;;;;;5067720;28;20205;-88
2021/11/29 05:09:55;;;;;;;15.07;12.77;;;1.40;95.30;;;;;;5095440;28;20224;-89
2021/11/29 05:12:23;;;;;;;17.17;12.67;;;1.60;95.40;;;;;;5085544;28;20684;-88
2021/11/29 05:14:51;;;;;;;17.50;12.30;;;1.70;94.90;;;;;;5095334;28;20232;-88
2021/11/29 05:17:19;;;;;;;16.50;12.67;;;1.60;94.40;;;;;;5077360;28;20192;-89
2021/11/29 05:19:47;;;;;;;15.83;12.93;;;1.50;95.00;;;;;;5079973;28;20232;-88
2021/11/29 05:22:14;;;;;;;16.23;12.80;;;1.50;95.10;;;;;;5067348;28;20197;-88
2021/11/29 05:24:42;;;;;;;16.67;12.53;;;1.50;95.40;;;;;;5088183;28;20714;-88
2021/11/29 05:27:09;;;;;;;16.80;12.97;;;1.60;95.10;;;;;;5083829;28;20197;-88
2021/11/29 05:29:36;;;;;;;17.63;13.43;;;1.40;95.00;;;;;;5092592;28;20227;-88
2021/11/29 05:32:06;;;;;;;19.73;13.10;;;1.30;95.40;;;;;;5080644;28;20235;-88
2021/11/29 05:34:34;;;;;;;18.20;13.37;;;1.40;95.40;;;;;;5087205;28;20227;-88
2021/11/29 05:37:01;;;;;;;17.77;13.33;;;1.50;95.20;;;;;;5079973;28;20203;-88
2021/11/29 05:39:28;;;;;;;18.07;13.50;;;1.50;95.20;;;;;;5082872;28;20244;-88
2021/11/29 05:41:55;;;;;;;17.63;12.23;;;1.60;95.00;;;;;;5072604;28;20206;-89
2021/11/29 05:44:22;;;;;;;16.33;12.53;;;1.60;95.00;;;;;;5085552;28;20358;-88
2021/11/29 05:46:49;;;;;;;13.73;11.17;;;1.50;95.00;;;;;;5093050;28;20716;-87
2021/11/29 05:49:18;;;;;;;14.60;10.67;;;1.60;95.10;;;;;;5095882;28;20216;-88
2021/11/29 05:51:45;;;;;;;18.37;11.57;;;1.60;94.70;;;;;;5076615;28;20196;-87
2021/11/29 05:54:12;;;;;;;14.47;10.83;;;1.60;94.40;;;;;;5086581;28;20814;-88
2021/11/29 05:56:39;;;;;;;15.60;11.00;;;1.60;94.40;;;;;;5095442;28;20591;-88
2021/11/29 05:59:08;;;;;;;13.93;11.00;;;1.50;94.70;;;;;;5064966;28;20204;-92
2021/11/29 06:01:35;;;;;;;14.87;11.03;;;1.50;94.70;;;;;;5068874;28;20201;-89
2021/11/29 06:04:02;;;;;;;12.80;10.93;;;1.30;94.60;;;;;;5082133;28;20247;-90
2021/11/29 06:06:31;;;;;;;15.17;10.90;;;1.30;95.00;;;;;;5076596;28;20205;-90
2021/11/29 06:08:58;;;;;;;15.37;10.37;;;1.40;95.20;;;;;;5088471;28;20196;-90
2021/11/29 06:11:27;;;;;;;12.97;10.67;;;1.50;95.30;;;;;;5086609;28;20651;-88
2021/11/29 06:13:54;;;;;;;16.17;11.23;;;1.60;95.10;;;;;;5077568;28;20231;-90
2021/11/29 06:16:21;;;;;;;13.07;10.47;;;1.60;94.80;;;;;;5083191;28;20198;-88
2021/11/29 06:18:52;;;;;;;14.37;10.17;;;1.70;94.40;;;;;;5083682;28;20197;-87
2021/11/29 06:28:44;;;;;;;13.13;10.50;;;1.60;94.40;;;;;;5092456;28;20591;-87
2021/11/29 06:31:13;;;;;;;13.33;10.30;;;1.60;94.40;;;;;;5092968;28;20716;-87
2021/11/29 06:33:41;;;;;;;15.43;11.23;;;1.50;94.30;;;;;;5087776;28;20213;-88
2021/11/29 06:36:09;;;;;;;13.07;10.30;;;1.40;94.30;;;;;;5077786;28;20304;-85
2021/11/29 06:38:36;;;;;;;12.27;10.10;;;1.60;94.40;;;;;;5092311;28;20196;-86
2021/11/29 06:41:04;;;;;;;13.50;10.27;;;1.50;94.30;;;;;;5087568;28;20224;-84
2021/11/29 06:43:31;;;;;;;13.60;11.03;;;1.60;94.40;;;;;;5094301;28;20247;-86
2021/11/29 06:46:01;;;;;;;15.10;11.73;;;1.50;94.30;;;;;;5083386;28;20221;-85
2021/11/29 06:48:28;;;;;;;13.73;11.23;;;1.60;94.40;;;;;;5082026;28;20198;-85
2021/11/29 06:50:56;;;;;;;13.70;10.43;;;1.60;94.40;;;;;;5064967;28;20225;-84
2021/11/29 06:53:24;;;;;;;14.40;10.80;;;1.50;94.40;;;;;;5091146;28;20224;-88
2021/11/29 06:55:54;;;;;;;14.57;10.83;;;1.50;94.90;;;;;;5094813;28;20255;-85
2021/11/29 06:58:47;;;;;;;14.33;11.17;;;1.50;95.20;;;;;;5100334;28;20535;-84
2021/11/29 07:12:10;;;;;;;13.50;11.17;;;1.30;95.20;;;;;;5087627;28;20654;-86
2021/11/29 07:14:37;;;;;;;15.07;11.13;;;1.40;95.50;;;;;;5071057;28;20228;-87
2021/11/29 07:17:05;;;;;;;15.70;11.27;;;1.30;95.70;;;;;;5086842;28;20227;-86
2021/11/29 07:19:32;;;;;;;16.13;11.40;;;1.40;95.90;;;;;;5082291;28;20914;-87
2021/11/29 07:22:00;;;;;;;13.53;11.23;;;1.60;95.40;;;;;;5089089;28;20631;-86
2021/11/29 07:24:27;;;;;;;13.87;10.73;;;1.70;94.90;;;;;;5087097;28;20695;-86
2021/11/29 07:26:56;;;;;;;15.80;12.03;;;1.60;94.40;;;;;;5081766;28;20219;-86
2021/11/29 07:29:24;;;;;;;14.87;11.30;;;1.60;94.70;;;;;;5059339;28;20228;-86
2021/11/29 07:31:52;;;;;;;14.67;11.50;;;1.70;94.60;;;;;;5083410;28;20212;-89
2021/11/29 07:34:19;;;;;;;16.33;11.90;;;1.60;95.00;;;;;;5094635;28;20230;-90
2021/11/29 07:36:46;;;;;;;15.13;12.07;;;1.60;95.10;;;;;;5074881;28;20200;-85
2021/11/29 07:39:13;;;;;;;15.77;12.33;;;1.60;95.30;;;;;;5097832;28;20226;-85
2021/11/29 07:41:40;;;;;;;14.50;11.17;;;1.80;95.10;;;;;;5083443;28;20197;-86
2021/11/29 07:44:07;;;;;;;14.03;11.57;;;1.70;94.70;;;;;;5063099;28;20239;-87
2021/11/29 07:46:38;;;;;;;15.00;11.90;;;1.70;94.90;;;;;;5083697;28;20201;-86
2021/11/29 07:49:06;;;;;;;16.80;11.97;;;1.70;95.10;;;;;;5083634;28;20226;-85
2021/11/29 07:51:46;;;;;;;16.33;12.50;;;1.70;95.10;;;;;;5088506;28;20284;-86
2021/11/29 07:54:13;;;;;;;14.63;11.87;;;1.80;94.80;;;;;;5078793;28;20236;-88
2021/11/29 07:56:40;;;;;;;16.57;11.73;;;1.80;95.00;;;;;;5086385;28;20656;-85
2021/11/29 07:59:07;;;;;;;16.73;13.50;;;1.80;94.80;;;;;;5087723;28;20207;-87
2021/11/29 08:01:35;;;;;;;17.50;13.27;;;1.70;95.10;;;;;;5091674;28;20200;-85
2021/11/29 08:04:03;;;;;;;18.60;13.23;;;1.60;95.70;;;;;;5089264;28;20224;-85
2021/11/29 08:06:30;;;;;;;16.67;13.30;;;1.60;96.00;;;;;;5105355;28;20227;-85
2021/11/29 08:08:58;;;;;;;17.10;13.20;;;1.60;96.20;;;;;;5095445;28;20573;-87
2021/11/29 08:11:25;;;;;;;17.67;13.27;;;1.60;96.40;;;;;;5077513;28;20188;-86
2021/11/29 08:13:52;;;;;;;16.47;12.97;;;1.70;96.10;;;;;;5094750;28;20700;-86
2021/11/29 08:16:19;;;;;;;17.10;13.60;;;1.60;96.20;;;;;;5094997;28;20224;-86
2021/11/29 08:18:48;;;;;;;18.50;13.30;;;1.60;96.50;;;;;;5100282;28;20196;-85
2021/11/29 08:21:15;;;;;;;18.50;14.43;;;1.50;97.20;;;;;;5088146;28;20247;-85
2021/11/29 08:23:43;;;;;;;15.63;13.23;;;1.50;97.20;;;;;;5068663;28;20252;-87
2021/11/29 08:26:10;;;;;;;17.30;13.63;;;1.50;96.90;;;;;;5084971;28;20213;-85
2021/11/29 08:28:37;;;;;;;16.37;12.87;;;1.60;97.00;;;;;;5086401;28;20200;-87
2021/11/29 08:31:04;;;;;;;16.10;12.87;;;1.60;97.00;;;;;;5082923;28;20243;-84
2021/11/29 08:33:31;;;;;;;16.40;12.40;;;1.60;97.00;;;;;;5090476;28;20221;-85
2021/11/29 08:36:00;;;;;;;15.17;12.13;;;1.80;97.00;;;;;;5092345;28;20587;-84
2021/11/29 08:38:27;;;;;;;12.93;10.83;;;1.90;96.50;;;;;;5087528;28;20193;-84
2021/11/29 08:40:54;;;;;;;14.40;11.53;;;2.00;95.40;;;;;;5099142;28;20732;-86
2021/11/29 08:43:21;;;;;;;15.23;11.43;;;1.90;95.30;;;;;;5088822;28;20216;-85
2021/11/29 08:45:51;;;;;;;14.83;11.63;;;1.90;94.90;;;;;;5097360;28;20232;-85
2021/11/29 08:48:19;;;;;;;15.97;11.10;;;1.90;94.40;;;;;;5093942;28;20200;-86
2021/11/29 08:50:49;;;;;;;15.50;11.10;;;1.90;94.40;;;;;;5084792;28;20304;-86
2021/11/29 08:53:21;;;;;;;14.30;10.93;;;2.00;94.40;;;;;;5082046;28;20227;-86
2021/11/29 08:55:48;;;;;;;15.30;11.63;;;2.00;94.10;;;;;;5080714;28;20224;-85
2021/11/29 08:58:16;;;;;;;12.30;9.90;;;2.10;94.20;;;;;;5085077;28;20655;-86
2021/11/29 09:00:46;;;;;;;13.53;9.73;;;2.20;92.90;;;;;;5084403;28;20235;-87
2021/11/29 09:03:13;;;;;;;14.43;10.80;;;2.20;92.60;;;;;;5058657;28;20196;-87
2021/11/29 09:05:44;;;;;;;13.47;10.27;;;2.10;92.80;;;;;;5082952;28;20225;-86
2021/11/29 09:08:12;;;;;;;11.20;9.23;;;2.20;92.40;;;;;;5086839;28;20199;-87
2021/11/29 09:10:41;;;;;;;11.67;8.87;;;2.30;91.80;;;;;;5093231;28;20304;-88
2021/11/29 09:13:09;;;;;;;13.93;9.43;;;2.40;91.40;;;;;;5088783;28;20225;-86
2021/11/29 09:15:37;;;;;;;12.13;8.87;;;2.50;91.40;;;;;;5069109;28;20217;-86
2021/11/29 09:18:04;;;;;;;11.10;8.90;;;2.50;91.10;;;;;;5087848;28;20545;-87
2021/11/29 09:20:45;;;;;;;12.77;9.77;;;2.80;90.50;;;;;;5087434;28;20221;-87
2021/11/29 09:23:15;;;;;;;12.83;9.30;;;2.90;90.20;;;;;;5080058;28;20208;-90
2021/11/29 09:25:44;;;;;;;12.13;9.90;;;3.00;90.10;;;;;;5068176;28;20221;-90
2021/11/29 09:28:14;;;;;;;13.97;8.83;;;3.30;88.90;;;;;;5082417;28;20670;-86
2021/11/29 09:30:47;;;;;;;10.30;8.70;;;3.70;86.20;;;;;;5089981;28;20592;-89
2021/11/29 09:33:15;;;;;;;12.87;9.63;;;4.00;82.60;;;;;;5087770;28;20208;-88
2021/11/29 09:35:42;;;;;;;13.67;9.27;;;4.50;78.40;;;;;;5086061;28;20216;-90
2021/11/29 09:38:09;;;;;;;11.47;9.40;;;5.10;75.80;;;;;;5064864;28;20213;-89
2021/11/29 09:40:39;;;;;;;10.87;9.33;;;5.30;73.00;;;;;;5059575;28;20629;-92
2021/11/29 09:43:10;;;;;;;11.87;9.80;;;5.30;71.60;;;;;;5089208;28;20189;-90
2021/11/29 09:45:44;;;;;;;11.70;9.70;;;5.00;72.10;;;;;;5084080;28;20258;-92
2021/11/29 09:48:13;;;;;;;14.30;9.67;;;4.70;73.40;;;;;;5073049;28;20196;-87
2021/11/29 09:50:42;;;;;;;13.87;10.43;;;4.20;76.30;;;;;;5092514;28;20224;-87
2021/11/29 09:53:12;;;;;;;11.70;9.70;;;3.70;79.10;;;;;;5089630;28;20663;-92
2021/11/29 09:55:39;;;;;;;13.23;10.33;;;3.60;79.20;;;;;;5082664;28;20224;-87
2021/11/29 09:58:08;;;;;;;14.20;10.73;;;3.40;82.10;;;;;;5083607;28;20193;-89
2021/11/29 10:00:38;;;;;;;14.97;11.33;;;3.40;82.40;;;;;;5083623;28;20228;-89
2021/11/29 10:03:06;;;;;;;13.80;10.50;;;3.30;83.90;;;;;;5080470;28;20643;-88
2021/11/29 10:05:36;;;;;;;14.10;10.70;;;3.40;84.40;;;;;;5091136;28;20241;-87
2021/11/29 10:08:18;;;;;;;14.80;11.17;;;3.20;83.50;;;;;;5085640;28;20213;-87
2021/11/29 10:10:49;;;;;;;13.70;10.60;;;3.10;85.00;;;;;;5083533;28;20274;-90
2021/11/29 10:13:17;;;;;;;13.37;10.10;;;3.10;85.10;;;;;;5082542;28;20193;-87
2021/11/29 10:15:55;;;;;;;14.47;10.70;;;3.20;85.80;;;;;;5074009;28;20289;-89
2021/11/29 10:18:25;;;;;;;13.93;11.13;;;3.10;85.00;;;;;;5079714;28;20196;-88
2021/11/29 10:20:58;;;;;;;13.77;10.13;;;3.20;85.40;;;;;;5079202;28;20224;-88
2021/11/29 10:23:54;;;;;;;15.43;11.27;;;3.10;85.20;;;;;;5090172;28;20212;-88
2021/11/29 10:26:26;;;;;;;13.63;10.20;;;3.20;85.20;;;;;;5106294;28;20211;-87
2021/11/29 10:39:03;;;;;;;14.80;10.40;;;3.60;82.90;;;;;;5096802;28;20187;-87
2021/11/29 10:41:33;;;;;;;13.17;10.53;;;3.70;83.30;;;;;;5087105;28;20197;-87
2021/11/29 10:44:18;;;;;;;13.80;9.67;;;3.50;83.00;;;;;;5103608;28;20241;-87
2021/11/29 10:46:48;;;;;;;11.77;9.50;;;3.30;82.60;;;;;;5090454;28;20193;-87
2021/11/29 10:49:18;;;;;;;13.70;10.37;;;3.00;85.40;;;;;;5046681;28;20209;-90
2021/11/29 10:51:46;;;;;;;13.50;9.40;;;2.90;87.70;;;;;;5085812;28;20197;-90
2021/11/29 10:54:19;;;;;;;15.80;10.70;;;3.00;87.80;;;;;;5074827;28;20213;-90
2021/11/29 10:56:49;;;;;;;12.63;9.40;;;3.00;87.70;;;;;;5076142;28;20196;-91
2021/11/29 10:59:26;;;;;;;12.60;9.93;;;2.80;86.40;;;;;;5074918;28;20224;-89
2021/11/29 11:02:25;;;;;;;12.10;9.60;;;2.80;87.60;;;;;;5076606;28;20193;-90
2021/11/29 11:05:10;;;;;;;13.17;10.07;;;2.90;87.70;;;;;;5095762;28;20687;-86
2021/11/29 11:07:39;;;;;;;12.70;9.97;;;3.00;87.70;;;;;;5079097;28;20193;-87
2021/11/29 11:13:19;;;;;;;13.77;10.10;;;3.30;86.40;;;;;;5015339;28;20692;-90
2021/11/29 11:15:48;;;;;;;10.67;8.67;;;3.40;84.50;;;;;;5083892;28;20187;-87
2021/11/29 11:18:15;;;;;;;13.83;10.73;;;3.40;83.60;;;;;;5094527;28;20193;-86
2021/11/29 11:20:44;;;;;;;13.63;10.97;;;3.30;84.70;;;;;;5060023;28;20233;-82
2021/11/29 11:23:52;;;;;;;14.23;11.10;;;3.40;87.40;;;;;;5094290;28;20199;-87
2021/11/29 11:26:32;;;;;;;11.97;9.97;;;3.50;87.50;;;;;;5083627;28;20312;-88
2021/11/29 11:29:01;;;;;;;12.03;9.63;;;3.60;84.30;;;;;;5092891;28;20196;-87
2021/11/29 11:31:43;;;;;;;13.67;10.10;;;3.40;84.40;;;;;;5096724;28;20628;-87
2021/11/29 11:34:10;;;;;;;13.70;10.97;;;3.20;84.90;;;;;;5098269;28;20222;-88
2021/11/29 11:36:38;;;;;;;14.70;11.40;;;3.30;87.90;;;;;;5096033;28;20199;-90
2021/11/29 11:58:19;;;;;;;13.77;10.03;;;3.00;90.00;;;;;;6283842;22;20187;-82
2021/11/29 12:04:11;;;;;;;14.10;10.43;;;2.70;91.30;;;;;;5045807;28;20170;-87
2021/11/29 12:06:42;;;;;;;8.37;6.30;;;2.40;92.80;;;;;;5052562;28;20558;-85
2021/11/29 12:09:12;;;;;;;9.47;6.70;;;2.10;93.90;;;;;;5054182;28;20589;-85
2021/11/29 12:12:31;;;;;;;7.90;5.20;;;1.80;94.40;;;;;;5043452;28;20274;-85
2021/11/29 12:15:18;;;;;;;6.37;4.97;;;1.60;94.40;;;;;;5050279;28;20225;-85
2021/11/29 12:17:48;;;;;;;6.37;4.93;;;1.60;94.70;;;;;;5059340;28;20198;-85
2021/11/29 12:20:19;;;;;;;9.20;5.17;;;1.60;94.80;;;;;;5068274;28;20585;-84
2021/11/29 12:22:46;;;;;;;8.80;6.37;;;1.60;94.90;;;;;;5079057;28;20193;-84
2021/11/29 12:25:19;;;;;;;10.27;5.87;;;1.60;95.00;;;;;;5059520;28;20233;-86
2021/11/29 12:27:48;;;;;;;9.87;6.10;;;1.70;94.40;;;;;;5054758;28;20224;-84
2021/11/29 12:30:43;;;;;;;8.50;6.20;;;1.80;94.40;;;;;;5052859;28;20236;-82
2021/11/29 12:33:13;;;;;;;9.70;6.27;;;2.00;93.60;;;;;;5050779;28;20658;-83
2021/11/29 12:35:42;;;;;;;10.70;6.80;;;2.00;92.90;;;;;;5052387;28;20221;-81
2021/11/29 12:38:11;;;;;;;10.00;7.23;;;2.00;92.70;;;;;;5077413;28;20189;-82
2021/11/29 12:40:46;;;;;;;10.93;7.70;;;2.00;92.80;;;;;;5051653;28;20689;-84
2021/11/29 12:43:31;;;;;;;13.70;7.90;;;2.00;92.50;;;;;;5048500;28;20300;-83
2021/11/29 12:46:25;;;;;;;10.77;7.57;;;2.10;92.70;;;;;;5051393;28;20305;-81
2021/11/29 12:48:53;;;;;;;11.30;7.47;;;2.00;93.10;;;;;;5042700;28;20206;-80
2021/11/29 12:51:48;;;;;;;9.70;7.17;;;2.20;92.90;;;;;;5046699;28;20572;-81
2021/11/29 12:54:42;;;;;;;11.77;7.73;;;2.20;91.80;;;;;;5046924;28;20221;-87
2021/11/29 12:57:31;;;;;;;12.27;7.53;;;2.20;90.80;;;;;;5047228;28;20374;-82
2021/11/29 13:00:00;;;;;;;11.17;6.87;;;2.10;90.80;;;;;;5047973;28;20214;-85
2021/11/29 13:02:43;;;;;;;10.37;7.07;;;2.20;90.90;;;;;;5054165;28;20194;-82
2021/11/29 13:05:35;;;;;;;11.63;7.60;;;2.20;90.70;;;;;;5033713;28;20323;-86
2021/11/29 13:08:05;;;;;;;13.73;8.17;;;2.20;91.70;;;;;;5036003;28;20230;-82
2021/11/29 13:10:56;;;;;;;10.63;7.77;;;2.10;91.60;;;;;;5044892;28;20230;-85
2021/11/29 13:13:40;;;;;;;12.17;7.90;;;2.20;91.80;;;;;;5056542;28;20293;-82
2021/11/29 13:16:09;;;;;;;15.33;8.27;;;2.20;91.60;;;;;;5047027;28;20583;-85
2021/11/29 13:18:57;;;;;;;14.77;8.67;;;2.20;92.10;;;;;;5047242;28;20653;-88
2021/11/29 13:21:26;;;;;;;12.13;8.27;;;2.20;91.80;;;;;;5040437;28;20214;-81
2021/11/29 13:23:55;;;;;;;12.40;8.07;;;2.20;91.80;;;;;;5047707;28;20571;-82
2021/11/29 13:26:23;;;;;;;11.73;8.10;;;2.20;91.60;;;;;;5050900;28;20206;-81
2021/11/29 13:28:56;;;;;;;12.97;8.83;;;2.20;91.80;;;;;;5047632;28;20213;-82
2021/11/29 13:31:27;;;;;;;10.80;8.07;;;2.30;91.80;;;;;;5037552;28;20673;-82
2021/11/29 13:33:54;;;;;;;14.33;8.03;;;2.30;91.70;;;;;;5043693;28;20282;-82
2021/11/29 13:36:29;;;;;;;12.83;8.33;;;2.50;91.00;;;;;;5051381;28;20217;-84
2021/11/29 13:38:58;;;;;;;10.53;7.57;;;2.40;91.10;;;;;;5047603;28;20202;-81
2021/11/29 13:41:26;;;;;;;10.67;7.83;;;2.30;91.20;;;;;;5049443;28;20682;-82
2021/11/29 13:43:53;;;;;;;12.73;7.93;;;2.40;91.10;;;;;;5046461;28;20279;-82
2021/11/29 13:46:19;;;;;;;13.40;8.47;;;2.30;90.70;;;;;;5051410;28;20222;-82
2021/11/29 13:48:47;;;;;;;13.63;8.30;;;2.20;90.90;;;;;;5053462;28;20641;-81
2021/11/29 13:51:15;;;;;;;12.13;7.77;;;2.10;90.90;;;;;;5052641;28;21819;-83